Time;durP1;ratioP1;P1;durP2;ratioP2;P2;SDS_P1;SDS_P2;PMS_P1;PMS_P2;Temp;Humidity;BMP_temperature;BMP_pressure;BME280_temperature;BME280_humidity;BME280_pressure;Samples;Min_cycle;Max_cycle;Signal;HPM_P1;HPM_P2
2021/10/13 00:01:08;;;;;;;0.70;0.60;;;;;;;4.78;100.00;-20812.34;4975762;28;20275;-73
2021/10/13 00:03:35;;;;;;;0.70;0.60;;;;;;;4.76;100.00;-20811.78;4975225;28;20189;-73
2021/10/13 00:06:02;;;;;;;0.70;0.60;;;;;;;4.77;100.00;-20812.06;4975577;28;20553;-74
2021/10/13 00:08:30;;;;;;;0.80;0.70;;;;;;;4.77;100.00;-20812.06;4990647;28;20719;-74
2021/10/13 00:10:56;;;;;;;0.70;0.68;;;;;;;4.75;100.00;-20811.50;4974191;28;20225;-73
2021/10/13 00:13:25;;;;;;;0.70;0.60;;;;;;;4.69;100.00;-20809.84;4974000;28;20200;-74
2021/10/13 00:15:53;;;;;;;0.70;0.60;;;;;;;4.67;100.00;-20809.28;4974872;28;20600;-73
2021/10/13 00:18:20;;;;;;;0.70;0.60;;;;;;;4.63;100.00;-20808.03;4975725;28;20283;-74
2021/10/13 00:20:46;;;;;;;0.70;0.60;;;;;;;4.63;100.00;-20808.16;4974361;28;20641;-73
2021/10/13 00:23:13;;;;;;;0.70;0.60;;;;;;;4.66;100.00;-20809.00;4975574;28;20204;-74
2021/10/13 00:25:40;;;;;;;0.70;0.65;;;;;;;4.68;100.00;-20809.44;4990578;28;20248;-74
2021/10/13 00:28:07;;;;;;;0.70;0.60;;;;;;;4.64;100.00;-20808.31;4985505;28;20196;-74
2021/10/13 00:30:36;;;;;;;0.70;0.70;;;;;;;4.67;100.00;-20809.28;4974654;28;20189;-74
2021/10/13 00:33:04;;;;;;;0.70;0.70;;;;;;;4.70;100.00;-20810.13;4974673;28;20192;-73
2021/10/13 00:35:36;;;;;;;0.70;0.70;;;;;;;4.76;100.00;-20811.78;4972145;28;20208;-72
2021/10/13 00:38:08;;;;;;;0.70;0.60;;;;;;;4.83;100.00;-20813.59;4974080;28;20240;-72
2021/10/13 00:40:40;;;;;;;1.27;1.17;;;;;;;4.81;100.00;-20813.03;4974109;28;20279;-72
2021/10/13 00:43:10;;;;;;;0.70;0.70;;;;;;;4.80;100.00;-20812.75;4970009;28;20185;-72
2021/10/13 00:45:49;;;;;;;0.70;0.70;;;;;;;4.74;100.00;-20811.09;4955712;28;20694;-72
2021/10/13 00:48:22;;;;;;;0.70;0.60;;;;;;;4.74;100.00;-20811.22;4962695;28;20199;-73
2021/10/13 00:50:53;;;;;;;0.70;0.60;;;;;;;4.73;100.00;-20810.81;4974087;28;20188;-73
2021/10/13 00:53:27;;;;;;;0.70;0.60;;;;;;;4.67;100.00;-20809.28;4973411;28;20204;-73
2021/10/13 00:56:11;;;;;;;0.70;0.60;;;;;;;4.62;100.00;-20807.88;4974696;28;20193;-72
2021/10/13 00:58:39;;;;;;;0.70;0.70;;;;;;;4.65;100.00;-20808.59;5004604;28;20204;-73
2021/10/13 01:01:21;;;;;;;0.70;0.60;;;;;;;4.69;100.00;-20809.84;4973640;28;20239;-72
2021/10/13 01:04:08;;;;;;;0.70;0.60;;;;;;;4.69;100.00;-20809.69;4974013;28;20641;-72
2021/10/13 01:06:47;;;;;;;0.70;0.60;;;;;;;4.66;100.00;-20809.00;4974885;28;20188;-72
2021/10/13 01:09:23;;;;;;;0.70;0.60;;;;;;;4.55;100.00;-20805.94;4972616;28;20216;-72
2021/10/13 01:12:11;;;;;;;0.70;0.70;;;;;;;4.60;100.00;-20807.34;4972937;28;20533;-72
2021/10/13 01:14:46;;;;;;;0.70;0.60;;;;;;;4.51;100.00;-20804.97;4974376;28;20172;-73
2021/10/13 01:17:26;;;;;;;0.80;0.70;;;;;;;4.45;100.00;-20803.16;4958237;28;20192;-72
2021/10/13 01:20:02;;;;;;;0.70;0.60;;;;;;;4.45;100.00;-20803.16;4973043;28;20251;-72
2021/10/13 01:23:08;;;;;;;0.70;0.60;;;;;;;4.43;100.00;-20802.59;4973548;28;20578;-72
2021/10/13 01:25:48;;;;;;;0.70;0.60;;;;;;;4.44;100.00;-20803.00;4959889;28;20227;-72
2021/10/13 01:28:25;;;;;;;0.70;0.63;;;;;;;4.36;100.00;-20800.94;4972833;28;20211;-73
2021/10/13 01:31:04;;;;;;;0.70;0.60;;;;;;;4.33;100.00;-20800.09;4973906;28;20185;-73
2021/10/13 01:33:43;;;;;;;0.70;0.70;;;;;;;4.35;100.00;-20800.66;4972782;28;20200;-73
2021/10/13 01:36:18;;;;;;;0.70;0.60;;;;;;;4.28;100.00;-20798.69;4974537;28;20164;-72
2021/10/13 01:38:52;;;;;;;0.70;0.60;;;;;;;4.19;100.00;-20796.19;4988730;28;20624;-73
2021/10/13 01:41:21;;;;;;;0.70;0.60;;;;;;;4.14;100.00;-20794.78;4972332;28;20230;-72
2021/10/13 01:43:54;;;;;;;0.70;0.60;;;;;;;4.10;100.00;-20793.81;4972461;28;20200;-72
2021/10/13 01:46:22;;;;;;;0.70;0.70;;;;;;;4.09;100.00;-20793.53;4974153;28;20259;-72
2021/10/13 01:48:51;;;;;;;0.70;0.70;;;;;;;4.05;100.00;-20792.44;4973673;28;20211;-72
2021/10/13 01:51:19;;;;;;;0.70;0.70;;;;;;;4.02;100.00;-20791.59;4978186;28;20200;-74
2021/10/13 01:53:48;;;;;;;0.70;0.60;;;;;;;4.04;100.00;-20792.16;4993421;28;20215;-72
2021/10/13 01:56:16;;;;;;;0.70;0.60;;;;;;;4.05;100.00;-20792.28;4977883;28;20547;-72
2021/10/13 01:58:46;;;;;;;0.70;0.60;;;;;;;4.01;100.00;-20791.16;4976317;28;20230;-74
2021/10/13 02:01:18;;;;;;;0.70;0.60;;;;;;;3.97;100.00;-20790.06;4977889;28;20188;-72
2021/10/13 02:03:48;;;;;;;0.70;0.63;;;;;;;3.97;100.00;-20790.06;4977418;28;20203;-72
2021/10/13 02:06:37;;;;;;;0.70;0.70;;;;;;;3.96;100.00;-20789.78;4976630;28;20206;-72
2021/10/13 02:09:06;;;;;;;0.70;0.60;;;;;;;3.93;100.00;-20788.94;4977232;28;20235;-73
2021/10/13 02:11:33;;;;;;;0.70;0.70;;;;;;;3.93;100.00;-20788.94;4978084;28;20247;-72
2021/10/13 02:14:04;;;;;;;0.70;0.65;;;;;;;3.93;100.00;-20788.94;4978204;28;20180;-72
2021/10/13 02:16:34;;;;;;;0.70;0.65;;;;;;;3.94;100.00;-20789.22;4976678;28;20661;-72
2021/10/13 02:19:03;;;;;;;0.70;0.60;;;;;;;3.91;100.00;-20788.53;4975689;28;20283;-73
2021/10/13 02:21:33;;;;;;;0.70;0.60;;;;;;;3.89;100.00;-20787.97;4977280;28;20251;-73
2021/10/13 02:24:25;;;;;;;0.70;0.70;;;;;;;3.85;100.00;-20786.84;4976164;28;20212;-72
2021/10/13 02:27:04;;;;;;;0.80;0.70;;;;;;;3.82;100.00;-20786.16;4976610;28;20195;-72
2021/10/13 02:29:31;;;;;;;0.70;0.60;;;;;;;3.82;100.00;-20786.16;4972836;28;20188;-72
2021/10/13 02:31:59;;;;;;;0.70;0.70;;;;;;;3.79;100.00;-20785.19;4977456;28;20286;-72
2021/10/13 02:34:26;;;;;;;0.70;0.60;;;;;;;3.82;100.00;-20786.00;4991608;28;20271;-73
2021/10/13 02:36:53;;;;;;;0.80;0.70;;;;;;;3.80;100.00;-20785.59;4975463;28;20247;-72
2021/10/13 02:39:20;;;;;;;0.70;0.70;;;;;;;3.81;100.00;-20785.88;4977309;28;20629;-72
2021/10/13 02:41:47;;;;;;;0.70;0.60;;;;;;;3.81;100.00;-20785.88;4969249;28;20204;-72
2021/10/13 02:44:14;;;;;;;0.70;0.60;;;;;;;3.84;100.00;-20786.72;4956793;28;20192;-72
2021/10/13 02:46:47;;;;;;;0.70;0.65;;;;;;;3.78;100.00;-20784.91;4961333;28;20228;-72
2021/10/13 02:49:24;;;;;;;0.70;0.60;;;;;;;3.80;100.00;-20785.59;4976772;28;20208;-72
2021/10/13 02:52:08;;;;;;;0.75;0.70;;;;;;;3.77;100.00;-20784.63;4976171;28;20676;-74
2021/10/13 02:54:49;;;;;;;0.70;0.60;;;;;;;3.88;100.00;-20787.69;5003610;28;20280;-73
2021/10/13 02:57:18;;;;;;;0.70;0.63;;;;;;;3.95;100.00;-20789.50;4977253;28;20700;-72
2021/10/13 02:59:52;;;;;;;0.70;0.70;;;;;;;3.99;100.00;-20790.75;4972399;28;20227;-72
2021/10/13 03:02:24;;;;;;;0.70;0.60;;;;;;;4.11;100.00;-20793.97;4959402;28;20218;-72
2021/10/13 03:04:59;;;;;;;0.70;0.60;;;;;;;4.28;100.00;-20798.69;4957668;28;20263;-71
2021/10/13 03:07:31;;;;;;;0.70;0.60;;;;;;;4.40;100.00;-20801.91;4972438;28;20216;-72
2021/10/13 03:10:02;;;;;;;0.70;0.60;;;;;;;4.55;100.00;-20805.94;4959682;28;20252;-73
2021/10/13 03:12:35;;;;;;;0.70;0.60;;;;;;;4.67;100.00;-20809.28;4955975;28;20228;-72
2021/10/13 03:15:03;;;;;;;0.70;0.60;;;;;;;4.71;100.00;-20810.25;4957898;28;20542;-72
2021/10/13 03:17:31;;;;;;;0.70;0.60;;;;;;;4.73;100.00;-20810.94;4956290;29;20182;-72
2021/10/13 03:20:01;;;;;;;0.70;0.60;;;;;;;4.63;100.00;-20808.16;4967929;28;20258;-72
2021/10/13 03:22:28;;;;;;;0.70;0.60;;;;;;;4.52;100.00;-20805.25;4975437;28;20228;-72
2021/10/13 03:24:55;;;;;;;0.70;0.70;;;;;;;4.47;100.00;-20803.72;4975709;28;20236;-72
2021/10/13 03:27:26;;;;;;;0.70;0.70;;;;;;;4.41;100.00;-20802.03;4975398;28;20224;-72
2021/10/13 03:29:53;;;;;;;0.70;0.63;;;;;;;4.29;100.00;-20798.97;4986099;28;20211;-72
2021/10/13 03:32:20;;;;;;;0.70;0.60;;;;;;;4.24;100.00;-20797.44;4975391;28;20689;-73
2021/10/13 03:34:48;;;;;;;0.70;0.60;;;;;;;4.28;100.00;-20798.56;4975551;28;20196;-72
2021/10/13 03:37:17;;;;;;;0.70;0.60;;;;;;;4.17;100.00;-20795.63;4976375;28;20598;-72
2021/10/13 03:39:46;;;;;;;0.75;0.75;;;;;;;4.19;100.00;-20796.19;4976570;28;20546;-72
2021/10/13 03:42:13;;;;;;;0.70;0.60;;;;;;;4.29;100.00;-20798.84;4959023;28;20200;-72
2021/10/13 03:44:40;;;;;;;0.70;0.60;;;;;;;4.29;100.00;-20798.84;4975792;28;20279;-73
2021/10/13 03:47:07;;;;;;;0.70;0.70;;;;;;;4.22;100.00;-20796.88;4975305;28;20189;-73
2021/10/13 03:49:35;;;;;;;0.70;0.60;;;;;;;4.22;100.00;-20797.03;4975913;28;20184;-73
2021/10/13 03:52:03;;;;;;;0.70;0.60;;;;;;;4.15;100.00;-20795.06;4974836;28;20840;-73
2021/10/13 03:54:31;;;;;;;0.70;0.60;;;;;;;4.09;100.00;-20793.41;4976081;28;20645;-73
2021/10/13 03:56:59;;;;;;;0.70;0.70;;;;;;;4.04;100.00;-20792.16;4976173;28;20204;-73
2021/10/13 03:59:26;;;;;;;0.70;0.60;;;;;;;3.98;100.00;-20790.34;4958668;28;20613;-73
2021/10/13 04:01:52;;;;;;;0.70;0.60;;;;;;;3.91;100.00;-20788.53;4974495;28;20263;-73
2021/10/13 04:04:20;;;;;;;0.70;0.60;;;;;;;3.84;100.00;-20786.56;4962025;28;20286;-72
2021/10/13 04:06:47;;;;;;;0.70;0.63;;;;;;;3.90;100.00;-20788.25;4955755;29;20288;-73
2021/10/13 04:09:14;;;;;;;0.70;0.60;;;;;;;3.93;100.00;-20788.94;4956702;28;20621;-73
2021/10/13 04:11:42;;;;;;;0.70;0.60;;;;;;;3.95;100.00;-20789.63;4953817;28;20557;-73
2021/10/13 04:14:09;;;;;;;0.70;0.70;;;;;;;4.01;100.00;-20791.31;4956310;29;20196;-73
2021/10/13 04:16:36;;;;;;;0.70;0.60;;;;;;;4.20;100.00;-20796.47;4959512;28;20716;-73
2021/10/13 04:19:03;;;;;;;0.70;0.60;;;;;;;4.27;100.00;-20798.28;4973498;28;20312;-73
2021/10/13 04:21:30;;;;;;;0.70;0.60;;;;;;;4.42;100.00;-20802.31;4975736;28;20232;-72
2021/10/13 04:23:57;;;;;;;0.70;0.60;;;;;;;4.47;100.00;-20803.72;4973147;28;20236;-73
2021/10/13 04:26:24;;;;;;;0.70;0.60;;;;;;;4.57;100.00;-20806.50;4990040;28;20262;-73
2021/10/13 04:28:53;;;;;;;2.45;2.25;;;;;;;4.60;100.00;-20807.47;4974448;28;20224;-72
2021/10/13 04:31:20;;;;;;;0.70;0.70;;;;;;;4.58;100.00;-20806.91;4989917;28;20200;-73
2021/10/13 04:33:47;;;;;;;0.70;0.60;;;;;;;4.63;100.00;-20808.16;4975649;28;20547;-73
2021/10/13 04:36:14;;;;;;;0.70;0.60;;;;;;;4.70;100.00;-20809.97;4973267;28;20623;-73
2021/10/13 04:38:41;;;;;;;0.70;0.63;;;;;;;4.71;100.00;-20810.41;4973889;28;20741;-73
2021/10/13 04:41:09;;;;;;;0.90;0.90;;;;;;;4.82;100.00;-20813.31;4973888;28;20214;-72
2021/10/13 04:43:36;;;;;;;0.70;0.60;;;;;;;4.91;100.00;-20815.69;4974844;28;20188;-72
2021/10/13 04:46:04;;;;;;;0.70;0.60;;;;;;;4.99;100.00;-20817.91;4975404;28;20291;-73
2021/10/13 04:48:31;;;;;;;0.70;0.60;;;;;;;5.06;100.00;-20819.88;4974120;28;20291;-73
2021/10/13 04:50:59;;;;;;;0.70;0.70;;;;;;;5.11;100.00;-20821.25;4956563;28;20199;-73
2021/10/13 04:53:25;;;;;;;0.70;0.60;;;;;;;5.16;100.00;-20822.50;4957207;28;20303;-73
2021/10/13 04:55:52;;;;;;;0.70;0.68;;;;;;;5.18;100.00;-20823.06;4973602;28;20263;-73
2021/10/13 04:58:20;;;;;;;0.70;0.60;;;;;;;5.20;100.00;-20823.75;4970955;28;20225;-74
2021/10/13 05:00:47;;;;;;;0.68;0.60;;;;;;;5.20;100.00;-20823.75;4969696;28;20200;-73
2021/10/13 05:03:16;;;;;;;0.70;0.60;;;;;;;5.27;100.00;-20825.72;4989952;28;20204;-72
2021/10/13 05:05:43;;;;;;;0.70;0.63;;;;;;;5.35;100.00;-20827.81;4973472;28;20580;-74
2021/10/13 05:08:10;;;;;;;0.70;0.60;;;;;;;5.38;100.00;-20828.50;4973942;28;20267;-73
2021/10/13 05:10:38;;;;;;;0.70;0.60;;;;;;;5.40;100.00;-20829.19;4974974;28;20524;-73
2021/10/13 05:13:06;;;;;;;0.68;0.60;;;;;;;5.43;100.00;-20829.88;4974633;28;20283;-73
2021/10/13 05:15:34;;;;;;;0.70;0.63;;;;;;;5.29;100.00;-20826.25;4974344;28;20181;-73
2021/10/13 05:18:02;;;;;;;0.70;0.70;;;;;;;5.25;100.00;-20825.00;4989309;28;20192;-73
2021/10/13 05:20:31;;;;;;;0.70;0.60;;;;;;;5.22;100.00;-20824.31;4973811;28;20216;-75
2021/10/13 05:22:58;;;;;;;0.70;0.63;;;;;;;5.14;100.00;-20821.94;4973051;28;20634;-73
2021/10/13 05:25:24;;;;;;;0.70;0.60;;;;;;;5.13;100.00;-20821.69;4971662;28;20306;-73
2021/10/13 05:27:52;;;;;;;0.70;0.60;;;;;;;5.14;100.00;-20822.09;4989135;28;20236;-72
2021/10/13 05:30:19;;;;;;;0.60;0.60;;;;;;;5.24;100.00;-20824.75;4972759;28;20657;-73
2021/10/13 05:32:46;;;;;;;0.70;0.60;;;;;;;5.35;100.00;-20827.81;4957073;28;20287;-73
2021/10/13 05:35:13;;;;;;;0.70;0.70;;;;;;;5.37;100.00;-20828.22;4957216;28;20195;-73
2021/10/13 05:37:41;;;;;;;0.70;0.60;;;;;;;5.38;100.00;-20828.50;4989468;28;20214;-73
2021/10/13 05:40:11;;;;;;;0.70;0.60;;;;;;;5.23;100.00;-20824.59;4973255;28;20195;-74
2021/10/13 05:42:38;;;;;;;0.70;0.60;;;;;;;5.20;100.00;-20823.75;4973977;28;20176;-73
2021/10/13 05:45:07;;;;;;;0.70;0.60;;;;;;;5.22;100.00;-20824.31;4989150;28;20196;-73
2021/10/13 05:47:34;;;;;;;0.70;0.60;;;;;;;5.20;100.00;-20823.63;4973733;28;20645;-73
2021/10/13 05:50:01;;;;;;;0.70;0.70;;;;;;;5.15;100.00;-20822.22;4977425;28;20630;-74
2021/10/13 05:52:29;;;;;;;0.70;0.60;;;;;;;5.27;100.00;-20825.72;4969828;28;20220;-73
2021/10/13 05:54:58;;;;;;;0.70;0.60;;;;;;;5.36;100.00;-20828.06;4971627;28;20211;-71
2021/10/13 05:57:25;;;;;;;0.70;0.60;;;;;;;5.38;100.00;-20828.50;4974522;28;20206;-73
2021/10/13 05:59:57;;;;;;;0.70;0.60;;;;;;;5.35;100.00;-20827.81;4991729;28;20656;-72
2021/10/13 06:02:24;;;;;;;0.70;0.60;;;;;;;5.37;100.00;-20828.22;4977181;28;20407;-72
2021/10/13 06:04:52;;;;;;;0.70;0.60;;;;;;;5.36;100.00;-20828.06;4975902;28;20263;-74
2021/10/13 06:07:19;;;;;;;0.70;0.60;;;;;;;5.36;100.00;-20828.06;4974227;28;20192;-73
2021/10/13 06:09:46;;;;;;;0.70;0.60;;;;;;;5.39;100.00;-20828.91;4972327;28;20568;-72
2021/10/13 06:12:14;;;;;;;0.70;0.60;;;;;;;5.35;100.00;-20827.66;4966317;28;20189;-73
2021/10/13 06:14:41;;;;;;;0.70;0.60;;;;;;;5.30;100.00;-20826.56;4953247;28;20193;-74
2021/10/13 06:17:09;;;;;;;0.70;0.70;;;;;;;5.31;100.00;-20826.69;4953634;28;20197;-74
2021/10/13 06:19:36;;;;;;;0.70;0.60;;;;;;;5.36;100.00;-20828.06;4959751;28;20196;-73
2021/10/13 06:22:04;;;;;;;0.70;0.60;;;;;;;5.49;100.00;-20831.56;4988740;28;20436;-74
2021/10/13 06:24:31;;;;;;;0.70;0.60;;;;;;;5.50;100.00;-20831.84;4974138;28;20196;-73
2021/10/13 06:26:59;;;;;;;0.70;0.70;;;;;;;5.55;100.00;-20833.22;4972509;28;20578;-73
2021/10/13 06:29:27;;;;;;;0.70;0.60;;;;;;;5.60;100.00;-20834.63;4957626;28;20207;-73
2021/10/13 06:31:54;;;;;;;0.65;0.60;;;;;;;5.55;100.00;-20833.38;4953966;29;20192;-73
2021/10/13 06:34:21;;;;;;;0.60;0.60;;;;;;;5.55;100.00;-20833.38;4953677;29;20184;-72
2021/10/13 06:36:48;;;;;;;0.70;0.60;;;;;;;5.55;100.00;-20833.22;4969686;28;21124;-74
2021/10/13 06:39:15;;;;;;;0.70;0.60;;;;;;;5.51;100.00;-20832.13;4977504;28;20554;-75
2021/10/13 06:41:46;;;;;;;0.70;0.60;;;;;;;5.47;100.00;-20831.13;4977632;28;20192;-73
2021/10/13 06:44:13;;;;;;;0.70;0.60;;;;;;;5.57;100.00;-20833.78;4959910;28;20207;-73
2021/10/13 06:46:49;;;;;;;0.70;0.60;;;;;;;5.61;100.00;-20834.91;4970069;28;20700;-75
2021/10/13 06:49:16;;;;;;;0.70;0.60;;;;;;;5.82;100.00;-20840.75;4994255;28;20657;-73
2021/10/13 06:51:43;;;;;;;0.70;0.60;;;;;;;6.02;100.00;-20846.03;4975765;28;20215;-73
2021/10/13 06:54:10;;;;;;;0.60;0.60;;;;;;;6.15;100.00;-20849.66;4977024;28;20219;-74
2021/10/13 06:56:37;;;;;;;0.70;0.70;;;;;;;6.33;100.00;-20854.50;4975926;28;20820;-76
2021/10/13 06:59:05;;;;;;;0.70;0.60;;;;;;;6.50;100.00;-20859.09;4974878;28;20468;-73
2021/10/13 07:01:33;;;;;;;0.70;0.60;;;;;;;6.76;100.00;-20866.31;4976707;28;20431;-74
2021/10/13 07:04:02;;;;;;;0.70;0.60;;;;;;;7.05;100.00;-20874.09;4976094;28;20925;-74
2021/10/13 07:06:29;;;;;;;0.70;0.60;;;;;;;7.44;100.00;-20884.66;4977431;28;20459;-74
2021/10/13 07:08:56;;;;;;;0.70;0.60;;;;;;;7.49;100.00;-20886.19;4974450;28;20566;-75
2021/10/13 07:11:25;;;;;;;1.80;1.70;;;;;;;7.70;100.00;-20891.88;4975754;28;20510;-73
2021/10/13 07:13:51;;;;;;;0.70;0.60;;;;;;;7.85;100.00;-20895.91;4975899;28;20487;-74
2021/10/13 07:16:20;;;;;;;0.60;0.60;;;;;;;8.09;100.00;-20902.28;4977327;28;20412;-73
2021/10/13 07:18:47;;;;;;;0.70;0.60;;;;;;;8.29;100.00;-20907.69;4975386;28;20495;-74
2021/10/13 07:21:15;;;;;;;0.70;0.60;;;;;;;8.27;100.00;-20907.28;4973550;28;20476;-74
2021/10/13 07:23:43;;;;;;;0.60;0.60;;;;;;;8.23;100.00;-20906.16;4991368;28;20454;-74
2021/10/13 07:26:10;;;;;;;0.60;0.60;;;;;;;8.13;100.00;-20903.53;4959648;28;20517;-73
2021/10/13 07:28:40;;;;;;;0.60;0.50;;;;;;;8.15;100.00;-20903.94;4984304;28;20911;-73
2021/10/13 07:31:09;;;;;;;0.70;0.60;;;;;;;8.27;100.00;-20907.13;4956446;29;20465;-74
2021/10/13 07:33:36;;;;;;;0.67;0.60;;;;;;;8.22;100.00;-20905.91;4965597;28;20963;-74
2021/10/13 07:36:05;;;;;;;0.67;0.60;;;;;;;8.21;100.00;-20905.75;4976640;28;20445;-74
2021/10/13 07:38:33;;;;;;;0.60;0.60;;;;;;;8.29;100.00;-20907.69;4974768;28;20462;-74
2021/10/13 07:41:00;;;;;;;0.70;0.60;;;;;;;8.37;100.00;-20909.91;4974901;28;21013;-74
2021/10/13 07:43:30;;;;;;;0.70;0.60;;;;;;;8.46;100.00;-20912.56;4976385;28;20451;-74
2021/10/13 07:46:02;;;;;;;0.60;0.50;;;;;;;8.59;100.00;-20915.88;4976532;28;20428;-74
2021/10/13 07:48:29;;;;;;;0.60;0.50;;;;;;;8.80;100.00;-20921.56;4973699;28;20466;-75
2021/10/13 07:50:57;;;;;;;0.60;0.60;;;;;;;9.08;100.00;-20929.31;4975006;28;20507;-73
2021/10/13 07:53:26;;;;;;;0.60;0.60;;;;;;;9.11;100.00;-20930.16;4976333;28;20555;-72
2021/10/13 07:55:54;;;;;;;0.60;0.60;;;;;;;9.28;100.00;-20934.59;4975150;28;21018;-73
2021/10/13 07:58:21;;;;;;;0.60;0.60;;;;;;;9.28;100.00;-20934.59;4974165;28;20487;-73
2021/10/13 08:00:48;;;;;;;0.70;0.70;;;;;;;9.24;100.00;-20933.47;4975215;28;20488;-73
2021/10/13 08:03:15;;;;;;;0.60;0.60;;;;;;;9.37;100.00;-20937.09;4973603;28;20471;-73
2021/10/13 08:05:45;;;;;;;0.60;0.60;;;;;;;9.32;100.00;-20935.84;4975235;28;20465;-74
2021/10/13 08:08:12;;;;;;;0.60;0.60;;;;;;;9.41;100.00;-20938.34;4975404;28;20483;-73
2021/10/13 08:10:39;;;;;;;0.60;0.60;;;;;;;9.33;100.00;-20936.13;4990810;28;20785;-74
2021/10/13 08:13:07;;;;;;;0.60;0.60;;;;;;;9.31;100.00;-20935.41;4974876;28;20497;-74
2021/10/13 08:15:35;;;;;;;0.70;0.60;;;;;;;9.43;100.00;-20938.88;4972288;28;20451;-74
2021/10/13 08:18:03;;;;;;;0.70;0.67;;;;;;;9.86;100.00;-20950.38;4973746;28;20435;-75
2021/10/13 08:20:30;;;;;;;0.70;0.70;;;;;;;9.78;100.00;-20948.31;4988168;28;20469;-74
2021/10/13 08:22:58;;;;;;;0.70;0.70;;;;;;;9.98;100.00;-20953.72;4972901;28;20474;-74
2021/10/13 08:25:25;;;;;;;0.60;0.50;;;;;;;9.94;100.00;-20952.59;4973547;28;20552;-74
2021/10/13 08:27:52;;;;;;;0.70;0.70;;;;;;;9.95;100.00;-20952.88;4973739;28;20525;-74
2021/10/13 08:30:20;;;;;;;0.60;0.50;;;;;;;9.97;100.00;-20953.44;4955393;29;20472;-74
2021/10/13 08:32:47;;;;;;;0.60;0.60;;;;;;;10.16;100.00;-20958.69;4956269;29;20788;-73
2021/10/13 08:35:14;;;;;;;0.70;0.70;;;;;;;10.46;100.00;-20966.72;4965335;28;20477;-73
2021/10/13 08:37:41;;;;;;;0.60;0.60;;;;;;;10.49;100.00;-20967.41;4974951;28;20803;-73
2021/10/13 08:40:10;;;;;;;0.70;0.60;;;;;;;10.75;100.00;-20974.47;4974135;28;20480;-74
2021/10/13 08:42:52;;;;;;;0.70;0.60;;;;;;;11.05;100.00;-20982.75;4973852;28;20440;-74
2021/10/13 08:45:21;;;;;;;0.70;0.60;;;;;;;11.03;100.00;-20982.22;4972668;28;20485;-74
2021/10/13 08:47:48;;;;;;;0.70;0.67;;;;;;;11.05;100.00;-20982.75;4973696;28;20499;-74
2021/10/13 08:50:15;;;;;;;0.70;0.60;;;;;;;11.00;100.00;-20981.38;4970290;28;20856;-73
2021/10/13 08:52:45;;;;;;;0.70;0.60;;;;;;;11.05;100.00;-20982.75;4974016;28;20589;-74
2021/10/13 08:55:13;;;;;;;0.70;0.60;;;;;;;11.09;100.00;-20983.88;4972807;28;20571;-74
2021/10/13 08:57:40;;;;;;;0.80;0.80;;;;;;;11.01;100.00;-20981.66;4974619;28;20405;-74
2021/10/13 09:00:08;;;;;;;0.70;0.70;;;;;;;11.22;100.00;-20987.19;4973910;28;20444;-73
2021/10/13 09:02:39;;;;;;;0.73;0.73;;;;;;;11.61;100.00;-20997.97;4967036;28;20533;-74
2021/10/13 09:05:11;;;;;;;0.90;0.90;;;;;;;12.35;100.00;-21017.84;4973149;28;20467;-73
2021/10/13 09:07:45;;;;;;;0.70;0.63;;;;;;;12.75;100.00;-21028.63;4973803;28;20478;-73
2021/10/13 09:10:13;;;;;;;0.70;0.60;;;;;;;12.66;100.00;-20989.06;4975212;28;20458;-72
2021/10/13 09:12:40;;;;;;;0.70;0.60;;;;;;;12.84;100.00;-20737.63;4986076;28;20432;-73
2021/10/13 09:15:10;;;;;;;0.70;0.70;;;;;;;12.83;100.00;-20533.75;4972174;28;21039;-73
2021/10/13 09:17:57;;;;;;;0.80;0.80;;;;;;;12.48;100.00;-20544.75;4972643;28;20472;-73
2021/10/13 09:20:26;;;;;;;0.73;0.73;;;;;;;12.86;100.00;-20034.28;4990145;28;20820;-73
2021/10/13 09:23:04;;;;;;;0.80;0.73;;;;;;;13.55;100.00;-19281.47;4974610;28;20440;-73
2021/10/13 09:25:33;;;;;;;0.70;0.70;;;;;;;13.35;100.00;-19223.81;4985556;28;20454;-73
2021/10/13 09:28:01;;;;;;;0.70;0.70;;;;;;;13.33;100.00;-18948.97;4973294;28;20587;-73
2021/10/13 09:30:31;;;;;;;0.70;0.60;;;;;;;13.65;100.00;-18417.63;4955930;28;20513;-73
2021/10/13 09:33:15;;;;;;;0.70;0.70;;;;;;;14.76;100.00;-17037.03;4968949;28;20452;-73
2021/10/13 09:35:45;;;;;;;0.70;0.60;;;;;;;14.93;100.00;-16230.09;4967492;28;20507;-73
2021/10/13 09:38:14;;;;;;;0.70;0.70;;;;;;;13.94;100.00;-16725.31;4954040;29;20486;-73
2021/10/13 09:40:43;;;;;;;1.03;0.87;;;;;;;13.73;100.00;-16466.53;4959132;28;20436;-73
2021/10/13 09:43:32;;;;;;;0.70;0.70;;;;;;;13.48;100.00;-16217.31;4974375;28;20453;-73
2021/10/13 09:46:07;;;;;;;0.70;0.60;;;;;;;13.16;100.00;-16150.56;4973026;28;20771;-73
2021/10/13 09:48:39;;;;;;;0.70;0.60;;;;;;;13.86;100.00;-14903.19;4956280;28;20477;-74
2021/10/13 09:51:15;;;;;;;0.70;0.70;;;;;;;14.23;100.00;-14041.19;4954116;29;20960;-73
2021/10/13 09:53:42;;;;;;;0.70;0.60;;;;;;;14.56;100.00;-13177.38;4960051;28;20529;-73
2021/10/13 09:56:31;;;;;;;0.77;0.77;;;;;;;14.72;100.00;-13023.09;4974411;28;20897;-73
2021/10/13 09:59:12;;;;;;;0.70;0.60;;;;;;;15.48;100.00;-11912.59;4972838;28;20424;-73
2021/10/13 10:01:43;;;;;;;0.83;0.83;;;;;;;16.31;100.00;-11458.94;4974546;28;20785;-73
2021/10/13 10:04:15;;;;;;;0.70;0.70;;;;;;;15.51;100.00;-12907.59;4971948;28;20872;-72
2021/10/13 10:06:44;;;;;;;0.70;0.70;;;;;;;16.02;100.00;-13502.25;4975690;28;20428;-73
2021/10/13 10:09:16;;;;;;;0.70;0.70;;;;;;;16.24;100.00;-14969.25;4975422;28;20514;-73
2021/10/13 10:11:47;;;;;;;0.70;0.60;;;;;;;16.06;100.00;-18768.13;4978848;28;20839;-72
2021/10/13 10:14:43;;;;;;;0.80;0.70;;;;;;;15.11;100.00;-21092.41;4977092;28;20426;-72
2021/10/13 10:17:12;;;;;;;0.80;0.80;;;;;;;14.29;100.00;-21070.25;4977872;28;20412;-72
2021/10/13 10:19:42;;;;;;;0.80;0.70;;;;;;;14.17;100.00;-21066.94;4976554;28;20604;-72
2021/10/13 10:22:12;;;;;;;0.70;0.60;;;;;;;14.61;100.00;-21078.91;4972941;28;20537;-72
2021/10/13 10:24:50;;;;;;;0.70;0.70;;;;;;;14.91;100.00;-21087.03;4972888;28;20438;-72
2021/10/13 10:27:25;;;;;;;0.70;0.60;;;;;;;15.03;100.00;-21090.19;4970088;28;20517;-72
2021/10/13 10:30:14;;;;;;;0.70;0.70;;;;;;;15.42;100.00;-21100.78;4977675;28;20467;-72
2021/10/13 10:32:45;;;;;;;0.80;0.70;;;;;;;16.55;100.00;-21131.03;4962788;28;20444;-71
2021/10/13 10:35:16;;;;;;;0.70;0.60;;;;;;;16.00;100.00;-21116.19;4969938;28;20538;-72
2021/10/13 10:37:45;;;;;;;0.70;0.60;;;;;;;15.96;100.00;-21115.09;4976793;28;20475;-73
2021/10/13 10:40:15;;;;;;;0.70;0.70;;;;;;;15.36;100.00;-21099.13;4976193;28;20443;-71
2021/10/13 10:43:04;;;;;;;0.70;0.60;;;;;;;16.36;100.00;-21126.06;4976945;28;20439;-72
2021/10/13 10:45:48;;;;;;;0.80;0.70;;;;;;;16.10;100.00;-21118.94;4975869;28;20487;-71
2021/10/13 10:48:17;;;;;;;0.70;0.60;;;;;;;16.08;100.00;-21118.38;4976535;28;20554;-71
2021/10/13 10:50:59;;;;;;;0.80;0.70;;;;;;;16.49;100.00;-21129.38;4974872;28;20394;-72
2021/10/13 10:53:32;;;;;;;0.70;0.60;;;;;;;16.38;100.00;-21126.47;4977776;28;21002;-72
2021/10/13 10:56:15;;;;;;;0.70;0.70;;;;;;;17.07;100.00;-21145.16;4976526;28;20398;-72
2021/10/13 10:59:02;;;;;;;0.70;0.60;;;;;;;17.10;100.00;-21145.97;4976086;28;20475;-71
2021/10/13 11:01:31;;;;;;;0.70;0.70;;;;;;;15.34;100.00;-21098.59;4975917;28;20443;-71
2021/10/13 11:04:05;;;;;;;0.70;0.60;;;;;;;15.10;100.00;-21092.13;4975292;28;20483;-72
2021/10/13 11:06:36;;;;;;;0.70;0.70;;;;;;;16.43;100.00;-21128.00;4975842;28;20391;-72
2021/10/13 11:09:05;;;;;;;0.70;0.60;;;;;;;16.69;100.00;-21134.88;4974880;28;20874;-72
2021/10/13 11:11:35;;;;;;;0.70;0.60;;;;;;;16.64;100.00;-21133.50;4976404;28;20467;-71
2021/10/13 11:14:05;;;;;;;0.70;0.70;;;;;;;16.03;100.00;-21117.00;4976266;28;20440;-72
2021/10/13 11:16:35;;;;;;;0.80;0.70;;;;;;;15.81;100.00;-21111.09;4957152;28;20421;-72
2021/10/13 11:19:10;;;;;;;0.70;0.70;;;;;;;16.08;100.00;-21118.53;4956117;29;20851;-72
2021/10/13 11:21:39;;;;;;;0.70;0.67;;;;;;;16.35;100.00;-21125.81;4971473;28;20414;-72
2021/10/13 11:24:18;;;;;;;0.80;0.80;;;;;;;15.85;100.00;-21112.19;4960210;28;21014;-72
2021/10/13 11:26:45;;;;;;;0.70;0.70;;;;;;;15.97;100.00;-21115.38;4974920;28;20447;-72
2021/10/13 11:29:18;;;;;;;0.80;0.80;;;;;;;16.11;100.00;-21119.34;4973885;28;20478;-72
2021/10/13 11:31:46;;;;;;;0.70;0.63;;;;;;;16.47;100.00;-21128.81;4985118;28;20475;-72
2021/10/13 11:34:16;;;;;;;0.70;0.70;;;;;;;16.10;100.00;-21118.94;4964737;28;21008;-74
2021/10/13 11:36:56;;;;;;;1.30;1.00;;;;;;;15.70;100.00;-21108.22;4969642;28;20436;-72
2021/10/13 11:39:27;;;;;;;0.80;0.70;;;;;;;15.51;100.00;-21103.00;4973104;28;20506;-73